Time;durP1;ratioP1;P1;durP2;ratioP2;P2;SDS_P1;SDS_P2;PMS_P1;PMS_P2;Temp;Humidity;BMP_temperature;BMP_pressure;BME280_temperature;BME280_humidity;BME280_pressure;Samples;Min_cycle;Max_cycle;Signal;HPM_P1;HPM_P2
2021/11/29 00:01:18;;;;;;;3.53;1.70;;;;;;;;;;4995926;28;20035;-77
2021/11/29 00:03:48;;;;;;;1.60;1.50;;;;;;;;;;4991457;28;20034;-78
2021/11/29 00:06:14;;;;;;;1.50;1.40;;;;;;;;;;5000608;28;20023;-78
2021/11/29 00:08:42;;;;;;;3.35;2.20;;;;;;;;;;4998743;28;20026;-77
2021/11/29 00:11:16;;;;;;;1.70;1.60;;;;;;;;;;5004200;28;20043;-78
2021/11/29 00:13:42;;;;;;;9.13;5.00;;;;;;;;;;4977306;28;20023;-78
2021/11/29 00:16:09;;;;;;;18.17;10.63;;;;;;;;;;5001154;28;20037;-78
2021/11/29 00:18:38;;;;;;;22.90;12.50;;;;;;;;;;4981081;28;20038;-78
2021/11/29 00:21:05;;;;;;;15.75;9.50;;;;;;;;;;5003572;28;20030;-78
2021/11/29 00:23:31;;;;;;;18.70;9.98;;;;;;;;;;4970266;28;20174;-78
2021/11/29 00:25:58;;;;;;;16.73;8.43;;;;;;;;;;4994227;28;20027;-78
2021/11/29 00:28:26;;;;;;;12.55;7.05;;;;;;;;;;4995919;28;20034;-78
2021/11/29 00:30:58;;;;;;;7.40;4.93;;;;;;;;;;5000731;28;20027;-78
2021/11/29 00:33:24;;;;;;;4.55;3.30;;;;;;;;;;4984623;28;20034;-78
2021/11/29 00:35:51;;;;;;;5.25;3.00;;;;;;;;;;5008642;28;20064;-78
2021/11/29 00:38:35;;;;;;;4.32;3.33;;;;;;;;;;4989200;28;20030;-79
2021/11/29 00:41:01;;;;;;;5.55;4.00;;;;;;;;;;4992127;28;20089;-77
2021/11/29 00:43:27;;;;;;;4.70;3.63;;;;;;;;;;4985234;28;20069;-78
2021/11/29 00:45:53;;;;;;;5.30;3.80;;;;;;;;;;5007653;28;20031;-78
2021/11/29 00:48:19;;;;;;;5.25;4.07;;;;;;;;;;5006613;28;20030;-78
2021/11/29 00:50:46;;;;;;;7.40;4.50;;;;;;;;;;5003628;28;20504;-78
2021/11/29 00:53:15;;;;;;;5.15;4.03;;;;;;;;;;4971444;28;20042;-78
2021/11/29 00:55:43;;;;;;;6.45;5.03;;;;;;;;;;4987496;28;20109;-78
2021/11/29 00:58:10;;;;;;;6.00;4.70;;;;;;;;;;4987967;28;20054;-78
2021/11/29 01:00:43;;;;;;;6.80;4.40;;;;;;;;;;5003633;28;20030;-78
2021/11/29 01:03:12;;;;;;;8.90;6.75;;;;;;;;;;4989149;28;20029;-78
2021/11/29 01:05:39;;;;;;;7.15;4.70;;;;;;;;;;4982357;28;20030;-78
2021/11/29 01:08:07;;;;;;;5.57;4.68;;;;;;;;;;5006190;28;20073;-78
2021/11/29 01:10:33;;;;;;;4.75;4.10;;;;;;;;;;5005679;28;20101;-78
2021/11/29 01:13:00;;;;;;;6.85;4.57;;;;;;;;;;5006120;28;20027;-78
2021/11/29 01:15:28;;;;;;;5.82;4.18;;;;;;;;;;5005327;28;20477;-77
2021/11/29 01:17:57;;;;;;;5.05;3.97;;;;;;;;;;5007210;28;20049;-78
2021/11/29 01:20:49;;;;;;;5.13;4.32;;;;;;;;;;4989748;28;20150;-79
2021/11/29 01:23:17;;;;;;;7.30;4.45;;;;;;;;;;5005731;28;20435;-77
2021/11/29 01:25:44;;;;;;;6.32;4.47;;;;;;;;;;5002357;28;20025;-78
2021/11/29 01:28:11;;;;;;;5.13;4.63;;;;;;;;;;5005810;28;20026;-78
2021/11/29 01:30:40;;;;;;;8.90;6.40;;;;;;;;;;4987014;28;20361;-79
2021/11/29 01:33:16;;;;;;;7.25;5.72;;;;;;;;;;4988931;28;20033;-78
2021/11/29 01:35:42;;;;;;;6.88;5.90;;;;;;;;;;4972651;28;20038;-78
2021/11/29 01:38:09;;;;;;;7.38;5.90;;;;;;;;;;5003929;28;20061;-78
2021/11/29 01:40:39;;;;;;;6.25;5.55;;;;;;;;;;5005186;28;20376;-78
2021/11/29 01:43:11;;;;;;;6.82;5.88;;;;;;;;;;5005088;28;20034;-78
2021/11/29 01:45:41;;;;;;;7.82;5.57;;;;;;;;;;4998411;28;20026;-78
2021/11/29 01:48:12;;;;;;;7.63;5.68;;;;;;;;;;5005320;28;20368;-78
2021/11/29 01:50:43;;;;;;;7.13;5.90;;;;;;;;;;4997246;28;20031;-78
2021/11/29 01:53:21;;;;;;;8.80;6.25;;;;;;;;;;4987909;28;20030;-77
2021/11/29 01:55:50;;;;;;;9.38;7.35;;;;;;;;;;4960823;28;20070;-78
2021/11/29 01:58:18;;;;;;;10.60;8.10;;;;;;;;;;4973779;28;20037;-78
2021/11/29 02:00:47;;;;;;;12.10;8.07;;;;;;;;;;4968732;28;20058;-78
2021/11/29 02:03:15;;;;;;;11.15;8.63;;;;;;;;;;4950877;28;20046;-77
2021/11/29 02:05:41;;;;;;;10.35;8.57;;;;;;;;;;4984237;28;20023;-78
2021/11/29 02:08:10;;;;;;;9.63;7.22;;;;;;;;;;4968747;28;20031;-78
2021/11/29 02:10:36;;;;;;;8.75;6.93;;;;;;;;;;4969251;28;20031;-78
2021/11/29 02:13:06;;;;;;;8.93;7.00;;;;;;;;;;4969092;28;20035;-78
2021/11/29 02:15:32;;;;;;;8.25;6.40;;;;;;;;;;4985503;28;20027;-78
2021/11/29 02:17:59;;;;;;;7.47;6.07;;;;;;;;;;4958860;28;20027;-79
2021/11/29 02:20:31;;;;;;;7.28;6.55;;;;;;;;;;4974837;28;20049;-78
2021/11/29 02:22:58;;;;;;;8.05;6.57;;;;;;;;;;4989916;28;20042;-78
2021/11/29 02:25:24;;;;;;;7.55;6.25;;;;;;;;;;4980471;28;20114;-78
2021/11/29 02:27:51;;;;;;;7.93;5.65;;;;;;;;;;4991315;28;20507;-78
2021/11/29 02:30:18;;;;;;;5.95;5.05;;;;;;;;;;4972510;28;20051;-78
2021/11/29 02:32:44;;;;;;;6.45;5.25;;;;;;;;;;4989506;28;20031;-78
2021/11/29 02:35:11;;;;;;;8.77;5.50;;;;;;;;;;4986088;28;20082;-78
2021/11/29 02:37:38;;;;;;;5.78;4.40;;;;;;;;;;4970502;28;20026;-78
2021/11/29 02:40:07;;;;;;;6.07;4.70;;;;;;;;;;4988095;28;20034;-78
2021/11/29 02:42:41;;;;;;;8.68;5.60;;;;;;;;;;4989812;28;20038;-79
2021/11/29 02:45:07;;;;;;;8.32;5.05;;;;;;;;;;4988712;28;20042;-78
2021/11/29 02:47:33;;;;;;;6.47;4.85;;;;;;;;;;4988277;28;20107;-78
2021/11/29 02:49:59;;;;;;;6.75;5.10;;;;;;;;;;4992643;28;20034;-78
2021/11/29 02:52:27;;;;;;;7.32;4.53;;;;;;;;;;4965926;28;20106;-77
2021/11/29 02:54:55;;;;;;;5.82;4.82;;;;;;;;;;4969087;28;20520;-78
2021/11/29 02:57:41;;;;;;;6.38;5.13;;;;;;;;;;4969653;28;20079;-77
2021/11/29 03:00:12;;;;;;;6.15;4.88;;;;;;;;;;4976310;28;20047;-77
2021/11/29 03:02:40;;;;;;;6.15;5.40;;;;;;;;;;4975350;28;20035;-78
2021/11/29 03:05:13;;;;;;;6.57;5.60;;;;;;;;;;4990571;28;20043;-78
2021/11/29 03:07:39;;;;;;;6.90;5.55;;;;;;;;;;4971858;28;20039;-78
2021/11/29 03:10:05;;;;;;;6.35;5.25;;;;;;;;;;4986945;28;20027;-78
2021/11/29 03:12:31;;;;;;;7.15;5.35;;;;;;;;;;4976395;28;20058;-78
2021/11/29 03:14:58;;;;;;;8.70;5.43;;;;;;;;;;4976629;28;20031;-77
2021/11/29 03:17:24;;;;;;;7.80;6.20;;;;;;;;;;4978650;28;20030;-78
2021/11/29 03:19:51;;;;;;;6.30;5.28;;;;;;;;;;4976456;28;20090;-77
2021/11/29 03:22:20;;;;;;;6.85;5.47;;;;;;;;;;4988062;28;20510;-78
2021/11/29 03:24:46;;;;;;;6.57;5.15;;;;;;;;;;4970558;28;20483;-78
2021/11/29 03:27:19;;;;;;;5.95;5.15;;;;;;;;;;4967007;28;20026;-78
2021/11/29 03:29:54;;;;;;;6.32;4.90;;;;;;;;;;4971240;28;20035;-78
2021/11/29 03:32:22;;;;;;;5.13;4.53;;;;;;;;;;4970407;29;20568;-78
2021/11/29 03:34:49;;;;;;;5.63;4.50;;;;;;;;;;4967280;28;20031;-78
2021/11/29 03:37:17;;;;;;;4.40;3.40;;;;;;;;;;4990791;28;20090;-78
2021/11/29 03:39:48;;;;;;;3.97;3.00;;;;;;;;;;4966772;28;20067;-78
2021/11/29 03:42:18;;;;;;;3.95;3.25;;;;;;;;;;4980560;28;20454;-78
2021/11/29 03:44:47;;;;;;;3.58;2.50;;;;;;;;;;4983687;28;20026;-77
2021/11/29 03:47:13;;;;;;;3.97;2.70;;;;;;;;;;4987701;28;20038;-77
2021/11/29 03:49:39;;;;;;;4.00;3.30;;;;;;;;;;4988848;28;20099;-77
2021/11/29 03:52:06;;;;;;;37.78;27.27;;;;;;;;;;5007082;28;20034;-77
2021/11/29 03:54:35;;;;;;;55.30;35.10;;;;;;;;;;5005978;28;20082;-78
2021/11/29 03:57:02;;;;;;;36.08;23.40;;;;;;;;;;4989945;28;20258;-79
2021/11/29 03:59:37;;;;;;;24.02;15.68;;;;;;;;;;5000319;28;20061;-78
2021/11/29 04:02:06;;;;;;;9.73;6.97;;;;;;;;;;4990160;28;20046;-78
2021/11/29 04:04:32;;;;;;;4.88;3.90;;;;;;;;;;4988904;28;20018;-78
2021/11/29 04:06:58;;;;;;;4.10;2.85;;;;;;;;;;4991806;28;20054;-78
2021/11/29 04:09:29;;;;;;;3.88;3.00;;;;;;;;;;5009044;28;20034;-79
2021/11/29 04:11:57;;;;;;;3.45;2.90;;;;;;;;;;4987999;28;20039;-78
2021/11/29 04:14:25;;;;;;;4.03;2.70;;;;;;;;;;4989056;28;20053;-78
2021/11/29 04:16:56;;;;;;;2.95;2.40;;;;;;;;;;4993600;28;20448;-78
2021/11/29 04:19:23;;;;;;;3.17;2.58;;;;;;;;;;4992723;28;20038;-78
2021/11/29 04:21:49;;;;;;;3.75;2.80;;;;;;;;;;4992519;28;20075;-77
2021/11/29 04:24:17;;;;;;;4.10;3.17;;;;;;;;;;4970206;28;20087;-78
2021/11/29 04:27:06;;;;;;;4.15;3.15;;;;;;;;;;4972816;28;20071;-79
2021/11/29 04:29:53;;;;;;;4.15;3.20;;;;;;;;;;4995995;28;20044;-78
2021/11/29 04:32:19;;;;;;;3.53;3.08;;;;;;;;;;4969032;29;20035;-78
2021/11/29 04:34:45;;;;;;;4.82;3.28;;;;;;;;;;4968903;29;20042;-78
2021/11/29 04:37:23;;;;;;;4.88;3.50;;;;;;;;;;4986491;28;20137;-78
2021/11/29 04:39:50;;;;;;;5.22;4.35;;;;;;;;;;4983450;28;20031;-78
2021/11/29 04:42:16;;;;;;;5.82;4.20;;;;;;;;;;4965402;28;20069;-76
2021/11/29 04:44:44;;;;;;;5.85;4.63;;;;;;;;;;4966275;29;20025;-78
2021/11/29 04:47:29;;;;;;;5.00;3.78;;;;;;;;;;4978217;28;20042;-78
2021/11/29 04:50:36;;;;;;;8.85;5.75;;;;;;;;;;4966911;29;20059;-78
2021/11/29 04:53:02;;;;;;;6.60;5.30;;;;;;;;;;4951664;29;20047;-78
2021/11/29 04:55:28;;;;;;;6.60;5.43;;;;;;;;;;4972736;28;20020;-78
2021/11/29 04:58:10;;;;;;;7.22;5.60;;;;;;;;;;4969990;28;20047;-79
2021/11/29 05:00:37;;;;;;;6.90;5.40;;;;;;;;;;4971520;29;20042;-78
2021/11/29 05:03:06;;;;;;;8.68;6.53;;;;;;;;;;4965093;28;20051;-78
2021/11/29 05:05:34;;;;;;;9.02;7.40;;;;;;;;;;5003136;28;20483;-78
2021/11/29 05:08:00;;;;;;;8.77;6.97;;;;;;;;;;5001908;28;20034;-78
2021/11/29 05:10:27;;;;;;;11.80;7.38;;;;;;;;;;5008267;28;20384;-78
2021/11/29 05:12:54;;;;;;;12.20;9.02;;;;;;;;;;4991584;28;20066;-79
2021/11/29 05:15:20;;;;;;;16.23;11.55;;;;;;;;;;5009747;28;20006;-77
2021/11/29 05:17:47;;;;;;;17.17;13.30;;;;;;;;;;5009660;28;20034;-77
2021/11/29 05:20:13;;;;;;;15.23;12.20;;;;;;;;;;5009699;28;20026;-78
2021/11/29 05:22:39;;;;;;;15.68;11.68;;;;;;;;;;4994534;28;20042;-78
2021/11/29 05:25:05;;;;;;;13.90;10.88;;;;;;;;;;4994016;28;20043;-78
2021/11/29 05:27:32;;;;;;;14.77;11.48;;;;;;;;;;5018388;28;20041;-78
2021/11/29 05:30:04;;;;;;;17.38;13.93;;;;;;;;;;5005470;28;20014;-78
2021/11/29 05:32:39;;;;;;;16.17;11.88;;;;;;;;;;4994219;28;20078;-78
2021/11/29 05:35:09;;;;;;;17.60;13.05;;;;;;;;;;5010327;28;20038;-78
2021/11/29 05:37:47;;;;;;;17.95;13.18;;;;;;;;;;5007046;28;20042;-77
2021/11/29 05:40:13;;;;;;;17.38;12.55;;;;;;;;;;5010358;28;20031;-78
2021/11/29 05:42:47;;;;;;;17.13;13.10;;;;;;;;;;4988460;28;20039;-77
2021/11/29 05:45:13;;;;;;;19.00;14.77;;;;;;;;;;5009682;28;20468;-77
2021/11/29 05:47:43;;;;;;;21.65;15.55;;;;;;;;;;4993278;28;20061;-77
2021/11/29 05:50:11;;;;;;;21.27;15.35;;;;;;;;;;4994819;28;20054;-77
2021/11/29 05:52:39;;;;;;;17.13;13.63;;;;;;;;;;4990007;28;20038;-78
2021/11/29 05:55:07;;;;;;;21.30;15.95;;;;;;;;;;4986353;28;20110;-78
2021/11/29 05:57:35;;;;;;;21.08;16.85;;;;;;;;;;4998052;28;20026;-78
2021/11/29 06:00:04;;;;;;;20.60;15.55;;;;;;;;;;5003309;28;20030;-78
2021/11/29 06:02:38;;;;;;;21.35;16.08;;;;;;;;;;5010256;28;20076;-78
2021/11/29 06:05:04;;;;;;;20.52;15.30;;;;;;;;;;4985253;28;20042;-77
2021/11/29 06:07:33;;;;;;;24.00;16.73;;;;;;;;;;5003239;28;20015;-77
2021/11/29 06:10:00;;;;;;;25.35;19.40;;;;;;;;;;5005237;28;20034;-78
2021/11/29 06:12:26;;;;;;;21.48;15.52;;;;;;;;;;4988873;28;20049;-78
2021/11/29 06:14:52;;;;;;;20.10;15.30;;;;;;;;;;5002235;28;20113;-78
2021/11/29 06:17:18;;;;;;;19.85;15.80;;;;;;;;;;4982145;28;20052;-78
2021/11/29 06:19:44;;;;;;;20.35;14.70;;;;;;;;;;4999123;28;20113;-77
2021/11/29 06:22:10;;;;;;;21.02;16.77;;;;;;;;;;4988172;28;20030;-78
2021/11/29 06:24:38;;;;;;;22.23;15.60;;;;;;;;;;5017418;28;20061;-77
2021/11/29 06:27:06;;;;;;;23.17;17.17;;;;;;;;;;4999382;28;20037;-79
2021/11/29 06:29:32;;;;;;;27.55;19.88;;;;;;;;;;5009780;28;20110;-78
2021/11/29 06:32:00;;;;;;;30.65;20.08;;;;;;;;;;4989432;28;20022;-77
2021/11/29 06:34:27;;;;;;;28.15;20.92;;;;;;;;;;4985929;28;20129;-78
2021/11/29 06:36:53;;;;;;;33.30;24.38;;;;;;;;;;4992536;28;20033;-78
2021/11/29 06:39:22;;;;;;;36.63;26.52;;;;;;;;;;4997916;28;20018;-79
2021/11/29 06:41:49;;;;;;;40.10;26.52;;;;;;;;;;5023045;28;20065;-77
2021/11/29 06:44:38;;;;;;;36.35;26.75;;;;;;;;;;4997173;28;20073;-78
2021/11/29 06:47:05;;;;;;;39.63;28.15;;;;;;;;;;5013835;28;20027;-77
2021/11/29 06:49:31;;;;;;;44.90;30.52;;;;;;;;;;5010092;28;20026;-76
2021/11/29 06:52:06;;;;;;;62.38;42.17;;;;;;;;;;5006184;28;20054;-76
2021/11/29 06:54:36;;;;;;;54.60;40.33;;;;;;;;;;5017031;28;20034;-76
2021/11/29 06:57:03;;;;;;;47.75;31.80;;;;;;;;;;4999370;28;20188;-74
2021/11/29 06:59:31;;;;;;;35.60;27.13;;;;;;;;;;5019181;28;20034;-75
2021/11/29 07:02:02;;;;;;;31.75;24.25;;;;;;;;;;4998116;28;20061;-74
2021/11/29 07:04:28;;;;;;;37.92;24.98;;;;;;;;;;5016115;28;20035;-75
2021/11/29 07:06:54;;;;;;;37.00;27.83;;;;;;;;;;5019581;28;20014;-78
2021/11/29 07:09:21;;;;;;;33.40;24.90;;;;;;;;;;5019945;28;20021;-74
2021/11/29 07:11:54;;;;;;;36.70;26.92;;;;;;;;;;4971566;28;20074;-75
2021/11/29 07:14:21;;;;;;;39.35;26.13;;;;;;;;;;5006360;28;20015;-75
2021/11/29 07:16:48;;;;;;;36.42;25.67;;;;;;;;;;5014933;28;20048;-78
2021/11/29 07:19:15;;;;;;;30.52;22.52;;;;;;;;;;4964045;29;20043;-75
2021/11/29 07:22:08;;;;;;;36.00;25.90;;;;;;;;;;4973641;28;20056;-76
2021/11/29 07:24:34;;;;;;;39.60;28.02;;;;;;;;;;4969171;28;20035;-77
2021/11/29 07:27:07;;;;;;;41.33;28.95;;;;;;;;;;4978042;28;20007;-75
2021/11/29 07:29:47;;;;;;;41.47;27.67;;;;;;;;;;4997225;28;20042;-76
2021/11/29 07:32:13;;;;;;;39.58;27.58;;;;;;;;;;4983378;28;20071;-78
2021/11/29 07:34:40;;;;;;;36.40;26.30;;;;;;;;;;4980110;29;20055;-75
2021/11/29 07:37:06;;;;;;;40.53;26.60;;;;;;;;;;4978626;29;20067;-80
2021/11/29 07:39:36;;;;;;;42.30;27.40;;;;;;;;;;4979878;28;20028;-75
2021/11/29 07:42:03;;;;;;;43.10;28.63;;;;;;;;;;4967802;28;20140;-76
2021/11/29 07:44:35;;;;;;;38.13;26.83;;;;;;;;;;4989347;28;20050;-76
2021/11/29 07:47:01;;;;;;;44.38;29.98;;;;;;;;;;4983844;28;20003;-77
2021/11/29 07:49:27;;;;;;;43.95;28.40;;;;;;;;;;4986673;28;20061;-75
2021/11/29 07:51:53;;;;;;;41.80;28.52;;;;;;;;;;5019154;28;20041;-79
2021/11/29 07:54:20;;;;;;;38.33;26.27;;;;;;;;;;5011835;28;20022;-77
2021/11/29 07:57:12;;;;;;;38.53;27.00;;;;;;;;;;5019610;28;20030;-75
2021/11/29 07:59:42;;;;;;;36.22;24.85;;;;;;;;;;5012233;28;20118;-75
2021/11/29 08:02:09;;;;;;;37.22;24.98;;;;;;;;;;5021639;28;20046;-75
2021/11/29 08:04:36;;;;;;;37.08;23.77;;;;;;;;;;5026483;28;20030;-76
2021/11/29 08:07:23;;;;;;;32.50;22.40;;;;;;;;;;5011656;28;20029;-76
2021/11/29 08:09:49;;;;;;;29.35;21.48;;;;;;;;;;5014816;28;20035;-75
2021/11/29 08:12:17;;;;;;;31.85;21.33;;;;;;;;;;4998200;28;20026;-75
2021/11/29 08:15:00;;;;;;;32.10;20.55;;;;;;;;;;4998514;28;20073;-76
2021/11/29 08:17:26;;;;;;;31.50;21.35;;;;;;;;;;5019277;28;20105;-75
2021/11/29 08:19:52;;;;;;;32.83;22.63;;;;;;;;;;5014681;28;20025;-75
2021/11/29 08:22:18;;;;;;;35.92;23.80;;;;;;;;;;5029698;28;20030;-75
2021/11/29 08:24:44;;;;;;;37.38;24.85;;;;;;;;;;5021325;28;20023;-74
2021/11/29 08:27:11;;;;;;;44.28;26.30;;;;;;;;;;5025671;28;20037;-77
2021/11/29 08:29:37;;;;;;;43.78;31.05;;;;;;;;;;5015664;28;20038;-73
2021/11/29 08:32:11;;;;;;;39.30;28.67;;;;;;;;;;5016476;28;20011;-73
2021/11/29 08:35:10;;;;;;;37.13;27.20;;;;;;;;;;5020310;28;20046;-75
2021/11/29 08:37:38;;;;;;;37.28;25.23;;;;;;;;;;5018694;28;20006;-77
2021/11/29 08:40:05;;;;;;;58.38;36.58;;;;;;;;;;5019919;28;20098;-75
2021/11/29 08:42:31;;;;;;;32.50;23.48;;;;;;;;;;5018534;28;20030;-73
2021/11/29 08:44:57;;;;;;;27.85;21.05;;;;;;;;;;5021371;28;20033;-74
2021/11/29 08:47:24;;;;;;;31.35;21.85;;;;;;;;;;5014900;28;20535;-75
2021/11/29 08:49:50;;;;;;;28.20;20.92;;;;;;;;;;5015664;28;20049;-74
2021/11/29 08:52:16;;;;;;;43.40;21.98;;;;;;;;;;5016195;28;20039;-76
2021/11/29 08:54:42;;;;;;;31.48;21.13;;;;;;;;;;5021765;28;20013;-73
2021/11/29 08:57:09;;;;;;;29.80;21.50;;;;;;;;;;5021081;28;20017;-73
2021/11/29 08:59:42;;;;;;;27.58;20.73;;;;;;;;;;5023860;28;20018;-77
2021/11/29 09:02:09;;;;;;;37.87;22.70;;;;;;;;;;5014117;28;20052;-75
2021/11/29 09:04:35;;;;;;;28.77;21.58;;;;;;;;;;5015976;28;20038;-73
2021/11/29 09:07:02;;;;;;;26.73;19.27;;;;;;;;;;5015582;28;20030;-73
2021/11/29 09:09:31;;;;;;;22.13;16.65;;;;;;;;;;5014684;28;20161;-77
2021/11/29 09:11:57;;;;;;;25.30;17.92;;;;;;;;;;5018058;28;20038;-74
2021/11/29 09:14:23;;;;;;;24.02;17.80;;;;;;;;;;5034153;28;20010;-73
2021/11/29 09:16:50;;;;;;;27.13;20.88;;;;;;;;;;5009471;28;20035;-76
2021/11/29 09:19:22;;;;;;;24.60;19.08;;;;;;;;;;5022384;28;20061;-75
2021/11/29 09:21:51;;;;;;;23.95;17.23;;;;;;;;;;5013589;28;20034;-73
2021/11/29 09:24:17;;;;;;;26.95;19.55;;;;;;;;;;5002159;28;20041;-78
2021/11/29 09:26:43;;;;;;;24.85;17.05;;;;;;;;;;5017164;28;20011;-72
2021/11/29 09:29:10;;;;;;;37.30;22.60;;;;;;;;;;5011678;28;20507;-77
2021/11/29 09:31:36;;;;;;;22.65;17.80;;;;;;;;;;4993001;28;20034;-74
2021/11/29 09:34:04;;;;;;;25.67;17.38;;;;;;;;;;5005671;28;20014;-74
2021/11/29 09:36:30;;;;;;;20.23;15.40;;;;;;;;;;5014465;28;20022;-76
2021/11/29 09:39:01;;;;;;;21.38;15.35;;;;;;;;;;4988157;28;20045;-75
2021/11/29 09:41:27;;;;;;;20.80;15.95;;;;;;;;;;4978582;28;20041;-77
2021/11/29 09:44:25;;;;;;;23.70;17.65;;;;;;;;;;4997681;28;20030;-82
2021/11/29 09:49:54;;;;;;;20.98;16.25;;;;;;;;;;5471683;23;20070;-76
2021/11/29 09:52:26;;;;;;;24.60;16.20;;;;;;;;;;4985688;28;20057;-78
2021/11/29 09:55:14;;;;;;;23.17;17.13;;;;;;;;;;5306757;23;20050;-76
2021/11/29 09:57:42;;;;;;;22.50;16.98;;;;;;;;;;4978920;28;20175;-79
2021/11/29 10:00:13;;;;;;;23.15;17.25;;;;;;;;;;4983960;28;20797;-80
2021/11/29 10:02:44;;;;;;;23.95;17.95;;;;;;;;;;5121584;23;20058;-73
2021/11/29 10:05:10;;;;;;;27.00;18.90;;;;;;;;;;4975951;28;20030;-76
2021/11/29 10:07:49;;;;;;;60.13;41.28;;;;;;;;;;4991136;28;20031;-76
2021/11/29 10:10:25;;;;;;;23.35;18.65;;;;;;;;;;4972153;28;20578;-77
2021/11/29 10:12:52;;;;;;;28.23;19.15;;;;;;;;;;4989332;28;20525;-76
2021/11/29 10:15:22;;;;;;;22.50;17.77;;;;;;;;;;4984411;28;20477;-77
2021/11/29 10:17:50;;;;;;;26.05;19.08;;;;;;;;;;4988554;28;20760;-76
2021/11/29 10:20:16;;;;;;;21.85;15.98;;;;;;;;;;4977874;28;20452;-76
2021/11/29 10:22:55;;;;;;;23.27;17.95;;;;;;;;;;4970913;28;20039;-76
2021/11/29 10:25:22;;;;;;;22.77;17.23;;;;;;;;;;4993933;28;20034;-76
2021/11/29 10:27:48;;;;;;;34.92;22.67;;;;;;;;;;4958772;28;20031;-76
2021/11/29 10:30:19;;;;;;;19.63;15.07;;;;;;;;;;4976517;28;20035;-76
2021/11/29 10:32:46;;;;;;;22.48;15.38;;;;;;;;;;4992017;28;20082;-75
2021/11/29 10:35:13;;;;;;;25.17;18.35;;;;;;;;;;4977180;28;20018;-78
2021/11/29 10:37:43;;;;;;;41.20;25.05;;;;;;;;;;4987787;28;20074;-78
2021/11/29 10:40:11;;;;;;;23.58;17.65;;;;;;;;;;4992749;28;20026;-78
2021/11/29 10:42:37;;;;;;;22.00;15.95;;;;;;;;;;4983301;28;20031;-76
2021/11/29 10:45:24;;;;;;;24.70;15.65;;;;;;;;;;4986269;28;20470;-80
2021/11/29 10:47:52;;;;;;;25.35;17.27;;;;;;;;;;4979957;28;20033;-76
2021/11/29 10:50:24;;;;;;;23.30;15.38;;;;;;;;;;4989540;28;20025;-76
2021/11/29 10:52:50;;;;;;;17.73;12.02;;;;;;;;;;4987725;28;20024;-77
2021/11/29 10:55:48;;;;;;;17.48;13.05;;;;;;;;;;4971222;28;20035;-79
2021/11/29 11:09:32;;;;;;;16.48;12.55;;;;;;;;;;4938930;29;20040;-77
2021/11/29 11:11:59;;;;;;;23.75;18.00;;;;;;;;;;4939319;29;20173;-77
2021/11/29 11:14:36;;;;;;;36.45;21.92;;;;;;;;;;4941970;29;20070;-77
2021/11/29 11:17:08;;;;;;;22.77;14.85;;;;;;;;;;4940305;29;20028;-80
2021/11/29 11:19:55;;;;;;;15.20;11.82;;;;;;;;;;4918293;29;20082;-80
2021/11/29 11:22:31;;;;;;;17.05;12.73;;;;;;;;;;4950788;29;20035;-79
2021/11/29 11:24:57;;;;;;;18.10;11.30;;;;;;;;;;4934555;29;20104;-77
2021/11/29 11:27:25;;;;;;;14.80;11.23;;;;;;;;;;4924868;29;20056;-79
2021/11/29 11:29:52;;;;;;;14.77;11.60;;;;;;;;;;4926960;29;20020;-77
2021/11/29 11:32:18;;;;;;;18.23;12.25;;;;;;;;;;4926625;29;20025;-77
2021/11/29 11:34:47;;;;;;;15.57;12.32;;;;;;;;;;4925380;29;20044;-76
2021/11/29 11:37:13;;;;;;;17.60;11.65;;;;;;;;;;4915261;29;20047;-77
2021/11/29 11:39:42;;;;;;;16.90;11.80;;;;;;;;;;4926344;29;20042;-78
2021/11/29 11:42:08;;;;;;;16.42;11.38;;;;;;;;;;4936140;29;20024;-75
2021/11/29 11:44:39;;;;;;;15.32;11.27;;;;;;;;;;4928323;29;20036;-77
2021/11/29 11:47:06;;;;;;;14.90;10.77;;;;;;;;;;4923670;29;20039;-77
2021/11/29 11:49:36;;;;;;;16.58;12.07;;;;;;;;;;4936291;29;20048;-78
2021/11/29 11:52:09;;;;;;;22.35;11.93;;;;;;;;;;4934788;29;20024;-74
2021/11/29 11:54:36;;;;;;;13.52;10.43;;;;;;;;;;4921385;29;20024;-78
2021/11/29 11:57:03;;;;;;;11.55;9.32;;;;;;;;;;4927707;29;20020;-75
2021/11/29 11:59:36;;;;;;;15.55;10.63;;;;;;;;;;4909277;29;20446;-77
2021/11/29 12:02:05;;;;;;;13.80;10.13;;;;;;;;;;4928886;29;20032;-80
2021/11/29 12:04:55;;;;;;;17.02;10.52;;;;;;;;;;4933325;29;20040;-78
2021/11/29 12:07:34;;;;;;;15.05;11.40;;;;;;;;;;4839341;29;20039;-78
2021/11/29 12:10:30;;;;;;;15.02;11.60;;;;;;;;;;4846190;29;20042;-78
2021/11/29 12:13:00;;;;;;;16.90;11.65;;;;;;;;;;4861709;29;20041;-80
2021/11/29 12:15:51;;;;;;;17.40;12.05;;;;;;;;;;4858023;29;20037;-75
2021/11/29 12:18:45;;;;;;;15.95;10.90;;;;;;;;;;4847215;29;20045;-77
2021/11/29 12:21:52;;;;;;;18.50;11.05;;;;;;;;;;4830322;29;20179;-78
2021/11/29 12:24:21;;;;;;;13.77;10.55;;;;;;;;;;4786750;30;20115;-78
2021/11/29 12:27:08;;;;;;;13.68;10.82;;;;;;;;;;4787935;30;20043;-78
2021/11/29 12:29:53;;;;;;;17.30;11.45;;;;;;;;;;4767849;30;20028;-78
2021/11/29 12:35:46;;;;;;;15.90;11.80;;;;;;;;;;4719388;30;20075;-77
2021/11/29 12:38:26;;;;;;;25.60;16.17;;;;;;;;;;4712294;30;20128;-79
2021/11/29 12:41:05;;;;;;;43.15;23.35;;;;;;;;;;4717489;30;20095;-79
2021/11/29 12:43:44;;;;;;;27.98;16.20;;;;;;;;;;4711558;30;20095;-80
2021/11/29 12:46:29;;;;;;;16.75;13.50;;;;;;;;;;4708304;30;20079;-79
2021/11/29 12:48:57;;;;;;;17.67;13.93;;;;;;;;;;4700676;30;20461;-77
2021/11/29 12:51:42;;;;;;;20.95;13.93;;;;;;;;;;4710998;30;20032;-77
2021/11/29 12:54:50;;;;;;;19.15;14.02;;;;;;;;;;4721801;30;20053;-79
2021/11/29 12:57:24;;;;;;;18.60;12.25;;;;;;;;;;4721656;30;20032;-76
2021/11/29 13:20:09;;;;;;;20.77;15.77;;;;;;;;;;5630475;23;20041;-78
2021/11/29 13:25:52;;;;;;;24.17;16.05;;;;;;;;;;5002597;28;20100;-77
2021/11/29 13:28:18;;;;;;;20.15;15.95;;;;;;;;;;4965403;28;20023;-75
2021/11/29 13:30:49;;;;;;;26.13;19.45;;;;;;;;;;4957368;28;20094;-77
2021/11/29 13:33:16;;;;;;;20.48;17.02;;;;;;;;;;4984767;28;20484;-78
2021/11/29 13:35:45;;;;;;;21.65;17.13;;;;;;;;;;4981270;28;20125;-78
2021/11/29 13:38:11;;;;;;;24.13;19.55;;;;;;;;;;4970168;28;20023;-78
2021/11/29 13:40:38;;;;;;;26.70;21.42;;;;;;;;;;4958185;28;20031;-78
2021/11/29 13:56:08;;;;;;;28.40;18.83;;;;;;;;;;5098120;23;20058;-79
2021/11/29 13:58:34;;;;;;;19.75;16.13;;;;;;;;;;4987161;28;20038;-77
2021/11/29 14:01:04;;;;;;;27.05;18.50;;;;;;;;;;5010992;28;20031;-78
2021/11/29 14:03:34;;;;;;;45.47;30.42;;;;;;;;;;4993167;28;20034;-78
2021/11/29 14:06:05;;;;;;;27.30;20.17;;;;;;;;;;4977308;28;20143;-77
2021/11/29 14:08:32;;;;;;;22.10;16.40;;;;;;;;;;4984971;28;20043;-77
2021/11/29 14:11:10;;;;;;;19.27;14.93;;;;;;;;;;5007938;28;20029;-78
2021/11/29 14:13:40;;;;;;;22.23;15.57;;;;;;;;;;4990357;28;20411;-77
2021/11/29 14:16:09;;;;;;;23.45;16.90;;;;;;;;;;4978295;28;20518;-77
2021/11/29 14:18:43;;;;;;;21.20;16.10;;;;;;;;;;4993725;28;20053;-75
2021/11/29 14:21:48;;;;;;;22.85;17.63;;;;;;;;;;4987329;28;20011;-80
2021/11/29 14:24:37;;;;;;;24.52;15.15;;;;;;;;;;5017465;28;20058;-81
2021/11/29 14:43:29;;;;;;;27.52;17.20;;;;;;;;;;5042444;23;20091;-75
2021/11/29 14:45:56;;;;;;;25.10;16.60;;;;;;;;;;4973788;28;20026;-76
2021/11/29 14:48:22;;;;;;;24.17;17.58;;;;;;;;;;5004341;28;20034;-72
2021/11/29 14:50:50;;;;;;;25.52;17.05;;;;;;;;;;4981057;28;20026;-74
2021/11/29 14:56:33;;;;;;;25.38;16.90;;;;;;;;;;5017156;28;20038;-82
2021/11/29 14:59:00;;;;;;;206.07;112.18;;;;;;;;;;5009080;28;20181;-80
2021/11/29 15:01:28;;;;;;;34.78;23.27;;;;;;;;;;5007813;28;20037;-78
2021/11/29 15:03:55;;;;;;;31.17;21.77;;;;;;;;;;4990145;28;20396;-76
2021/11/29 15:06:28;;;;;;;28.67;19.92;;;;;;;;;;4990368;28;20042;-75
2021/11/29 15:08:57;;;;;;;28.80;19.92;;;;;;;;;;4994369;28;20037;-75
2021/11/29 15:11:23;;;;;;;29.42;19.80;;;;;;;;;;4977551;28;20516;-75
2021/11/29 15:13:56;;;;;;;30.08;21.98;;;;;;;;;;4998591;28;20030;-74
2021/11/29 15:16:27;;;;;;;26.33;18.85;;;;;;;;;;4994576;28;20045;-76
2021/11/29 15:18:55;;;;;;;26.48;19.35;;;;;;;;;;4994849;28;20142;-76
2021/11/29 15:21:28;;;;;;;22.80;18.08;;;;;;;;;;4980318;28;20449;-76
2021/11/29 15:23:54;;;;;;;27.45;18.48;;;;;;;;;;4999825;28;20038;-77
2021/11/29 15:26:37;;;;;;;27.52;18.90;;;;;;;;;;4986447;28;20022;-74
2021/11/29 15:29:04;;;;;;;29.83;20.60;;;;;;;;;;4988099;28;20030;-73
2021/11/29 15:31:31;;;;;;;23.45;16.83;;;;;;;;;;4974222;28;20143;-74
2021/11/29 15:34:05;;;;;;;26.38;18.88;;;;;;;;;;4985827;28;20019;-76
2021/11/29 15:36:31;;;;;;;33.30;23.27;;;;;;;;;;4980323;28;20035;-73
2021/11/29 15:39:27;;;;;;;26.90;18.13;;;;;;;;;;4961841;28;20031;-79
2021/11/29 15:42:12;;;;;;;24.17;17.92;;;;;;;;;;4985516;28;20077;-80
2021/11/29 15:44:43;;;;;;;31.73;20.48;;;;;;;;;;4985941;28;20055;-81
2021/11/29 15:47:29;;;;;;;34.75;21.17;;;;;;;;;;4947835;29;20023;-80
2021/11/29 15:49:59;;;;;;;26.27;18.70;;;;;;;;;;4985627;28;20038;-77
2021/11/29 15:52:30;;;;;;;32.75;20.30;;;;;;;;;;4984935;28;20022;-78
2021/11/29 15:54:56;;;;;;;32.05;21.95;;;;;;;;;;4967291;28;20054;-76
2021/11/29 15:57:22;;;;;;;31.40;20.52;;;;;;;;;;4983590;28;20087;-74
2021/11/29 15:59:48;;;;;;;30.50;21.80;;;;;;;;;;4980233;28;20082;-76